Accueil
METAR-TAF:

METAR-TAF

Aéroports :

Aéroport international de Kuala Lumpur

Kuala Lumpur, Malaisie

latitude: 02-44N, longitude: 101-42E, altitude: 21 m

Observation

Le bulletin a été fait il y a 18 minutes, à 18:30 UTC
Vent calme
Température 26°C
Humidité 89%
Pression 1008 hPa
Visibilité 10 km ou plus
Quelques nuages à une hauteur de 1700 ft, Cumulonimbus.

METAR: WMKK 241830Z 00000KT 9999 FEW017CB 26/24 Q1008 NOSIG

Heure: 02:48 (18:48 UTC)

Prévision

Le bulletin a été fait il y a 1 heure et 48 minutes, à 17:00 UTC
Prévision valable du 24 à 18 UTC au 26 à 00 UTC
Vent 3 kt de direction variable
Visibilité 10 km ou plus
Quelques nuages à une hauteur de 3000 ft

TAF: WMKK 241700Z 2418/2600 VRB03KT 9999 FEW030

Observations et prévisions météorologiques de plus de 4000 aéroports (messages METAR et TAF).

Les stations disponibles sont représentées par des disques jaunes et rouges sur la carte.

Passer la souris dessus pour voir le nom de la station.

Cliquer dessus pour voir les observations et prévisions météorologiques.

Pour changer de carte: cliquez sur les boutons verts avec une croix noire pour zoomer, sur le bouton vert avec un tiret pour effectuer un zoom arrière, ou sur les flèches vertes pour les cartes adjacentes.


METAR-TAF: